sensor_id;sensor_type;location;lat;lon;timestamp;pressure;altitude;pressure_sealevel;temperature;humidity
45731;BME280;31440;48.584;13.460;2023-07-20T00:01:29;96523.25;;;16.16;100.00
45731;BME280;31440;48.584;13.460;2023-07-20T00:04:34;96534.56;;;16.29;100.00
45731;BME280;31440;48.584;13.460;2023-07-20T00:07:39;96534.47;;;16.18;100.00
45731;BME280;31440;48.584;13.460;2023-07-20T00:10:43;96488.44;;;16.25;100.00
45731;BME280;31440;48.584;13.460;2023-07-20T00:13:48;96480.22;;;16.29;100.00
45731;BME280;31440;48.584;13.460;2023-07-20T00:16:55;96489.88;;;15.92;100.00
45731;BME280;31440;48.584;13.460;2023-07-20T00:20:00;96495.00;;;14.91;100.00
45731;BME280;31440;48.584;13.460;2023-07-20T00:23:05;96500.66;;;15.50;100.00
45731;BME280;31440;48.584;13.460;2023-07-20T00:26:10;96507.66;;;15.36;100.00
45731;BME280;31440;48.584;13.460;2023-07-20T00:29:14;96511.88;;;15.39;100.00
45731;BME280;31440;48.584;13.460;2023-07-20T00:32:19;96508.06;;;15.30;100.00
45731;BME280;31440;48.584;13.460;2023-07-20T00:35:24;96509.94;;;15.28;100.00
45731;BME280;31440;48.584;13.460;2023-07-20T00:38:28;96512.47;;;15.17;100.00
45731;BME280;31440;48.584;13.460;2023-07-20T00:41:33;96520.16;;;15.33;100.00
45731;BME280;31440;48.584;13.460;2023-07-20T00:44:39;96519.31;;;15.32;100.00
45731;BME280;31440;48.584;13.460;2023-07-20T00:47:44;96515.00;;;15.31;100.00
45731;BME280;31440;48.584;13.460;2023-07-20T00:50:49;96495.69;;;15.45;100.00
45731;BME280;31440;48.584;13.460;2023-07-20T00:53:54;96515.41;;;15.78;100.00
45731;BME280;31440;48.584;13.460;2023-07-20T00:57:00;96511.94;;;15.77;100.00
45731;BME280;31440;48.584;13.460;2023-07-20T01:00:06;96516.31;;;15.64;100.00
45731;BME280;31440;48.584;13.460;2023-07-20T01:03:11;96533.41;;;15.57;100.00
45731;BME280;31440;48.584;13.460;2023-07-20T01:06:29;96531.88;;;15.80;100.00
45731;BME280;31440;48.584;13.460;2023-07-20T01:09:44;96499.56;;;16.28;100.00
45731;BME280;31440;48.584;13.460;2023-07-20T01:12:52;96511.91;;;15.64;100.00
45731;BME280;31440;48.584;13.460;2023-07-20T01:16:00;96519.88;;;16.01;100.00
45731;BME280;31440;48.584;13.460;2023-07-20T01:19:05;96518.94;;;16.15;100.00
45731;BME280;31440;48.584;13.460;2023-07-20T01:25:51;96507.66;;;16.25;100.00
45731;BME280;31440;48.584;13.460;2023-07-20T01:29:33;96511.19;;;16.37;100.00
45731;BME280;31440;48.584;13.460;2023-07-20T01:32:42;96510.59;;;16.33;100.00
45731;BME280;31440;48.584;13.460;2023-07-20T01:35:56;96524.59;;;15.58;100.00
45731;BME280;31440;48.584;13.460;2023-07-20T01:39:02;96523.69;;;15.71;100.00
45731;BME280;31440;48.584;13.460;2023-07-20T01:42:07;96524.13;;;15.78;100.00
45731;BME280;31440;48.584;13.460;2023-07-20T01:45:14;96525.19;;;15.49;100.00
45731;BME280;31440;48.584;13.460;2023-07-20T01:48:18;96524.72;;;15.82;100.00
45731;BME280;31440;48.584;13.460;2023-07-20T01:51:23;96528.28;;;16.06;100.00
45731;BME280;31440;48.584;13.460;2023-07-20T01:54:28;96542.06;;;16.10;100.00
45731;BME280;31440;48.584;13.460;2023-07-20T01:57:33;96540.59;;;15.93;100.00
45731;BME280;31440;48.584;13.460;2023-07-20T02:00:37;96542.72;;;15.48;100.00
45731;BME280;31440;48.584;13.460;2023-07-20T02:03:43;96537.56;;;15.73;100.00
45731;BME280;31440;48.584;13.460;2023-07-20T02:06:47;96536.47;;;16.01;100.00
45731;BME280;31440;48.584;13.460;2023-07-20T02:09:52;96533.88;;;15.76;100.00
45731;BME280;31440;48.584;13.460;2023-07-20T02:12:57;96537.09;;;15.54;100.00
45731;BME280;31440;48.584;13.460;2023-07-20T02:16:02;96552.56;;;15.32;100.00
45731;BME280;31440;48.584;13.460;2023-07-20T02:19:06;96561.75;;;15.52;100.00
45731;BME280;31440;48.584;13.460;2023-07-20T02:22:11;96569.59;;;15.12;100.00
45731;BME280;31440;48.584;13.460;2023-07-20T02:25:16;96551.16;;;15.53;100.00
45731;BME280;31440;48.584;13.460;2023-07-20T02:28:21;96526.88;;;15.50;100.00
45731;BME280;31440;48.584;13.460;2023-07-20T02:31:25;96515.44;;;15.38;100.00
45731;BME280;31440;48.584;13.460;2023-07-20T02:34:30;96518.81;;;15.40;100.00
45731;BME280;31440;48.584;13.460;2023-07-20T02:40:41;96521.47;;;15.91;100.00
45731;BME280;31440;48.584;13.460;2023-07-20T02:43:46;96528.03;;;15.46;100.00
45731;BME280;31440;48.584;13.460;2023-07-20T02:46:50;96528.63;;;15.76;100.00
45731;BME280;31440;48.584;13.460;2023-07-20T02:49:55;96528.09;;;15.71;100.00
45731;BME280;31440;48.584;13.460;2023-07-20T02:52:59;96534.38;;;15.68;100.00
45731;BME280;31440;48.584;13.460;2023-07-20T02:56:04;96539.06;;;15.51;100.00
45731;BME280;31440;48.584;13.460;2023-07-20T02:59:09;96533.13;;;15.74;100.00
45731;BME280;31440;48.584;13.460;2023-07-20T03:02:13;96539.81;;;15.13;100.00
45731;BME280;31440;48.584;13.460;2023-07-20T03:05:18;96535.13;;;15.70;100.00
45731;BME280;31440;48.584;13.460;2023-07-20T03:08:23;96533.41;;;15.57;100.00
45731;BME280;31440;48.584;13.460;2023-07-20T03:11:28;96541.59;;;15.52;100.00
45731;BME280;31440;48.584;13.460;2023-07-20T03:14:34;96537.00;;;15.81;100.00
45731;BME280;31440;48.584;13.460;2023-07-20T03:17:39;96552.13;;;15.65;100.00
45731;BME280;31440;48.584;13.460;2023-07-20T03:20:44;96554.78;;;15.25;100.00
45731;BME280;31440;48.584;13.460;2023-07-20T03:23:50;96534.94;;;14.94;100.00
45731;BME280;31440;48.584;13.460;2023-07-20T03:30:01;96552.13;;;15.65;100.00
45731;BME280;31440;48.584;13.460;2023-07-20T03:33:06;96549.06;;;15.58;100.00
45731;BME280;31440;48.584;13.460;2023-07-20T03:36:11;96545.50;;;15.07;100.00
45731;BME280;31440;48.584;13.460;2023-07-20T03:39:15;96545.34;;;15.48;100.00
45731;BME280;31440;48.584;13.460;2023-07-20T03:42:20;96539.94;;;15.64;100.00
45731;BME280;31440;48.584;13.460;2023-07-20T03:45:25;96552.75;;;15.68;100.00
45731;BME280;31440;48.584;13.460;2023-07-20T03:48:30;96553.13;;;15.50;100.00
45731;BME280;31440;48.584;13.460;2023-07-20T03:51:35;96546.97;;;15.63;100.00
45731;BME280;31440;48.584;13.460;2023-07-20T03:54:40;96545.31;;;15.75;100.00
45731;BME280;31440;48.584;13.460;2023-07-20T03:57:44;96562.84;;;15.87;100.00
45731;BME280;31440;48.584;13.460;2023-07-20T04:00:51;96560.56;;;15.95;100.00
45731;BME280;31440;48.584;13.460;2023-07-20T04:03:56;96560.53;;;15.83;100.00
45731;BME280;31440;48.584;13.460;2023-07-20T04:07:00;96563.47;;;15.65;100.00
45731;BME280;31440;48.584;13.460;2023-07-20T04:10:05;96571.25;;;15.92;100.00
45731;BME280;31440;48.584;13.460;2023-07-20T04:13:12;96572.31;;;16.02;100.00
45731;BME280;31440;48.584;13.460;2023-07-20T04:16:17;96578.41;;;15.90;100.00
45731;BME280;31440;48.584;13.460;2023-07-20T04:19:21;96586.69;;;16.22;100.00
45731;BME280;31440;48.584;13.460;2023-07-20T04:22:26;96587.53;;;16.23;100.00
45731;BME280;31440;48.584;13.460;2023-07-20T04:25:31;96599.41;;;16.03;100.00
45731;BME280;31440;48.584;13.460;2023-07-20T04:28:43;96593.75;;;16.34;100.00
45731;BME280;31440;48.584;13.460;2023-07-20T04:31:55;96593.09;;;16.18;100.00
45731;BME280;31440;48.584;13.460;2023-07-20T04:34:59;96599.72;;;16.62;100.00
45731;BME280;31440;48.584;13.460;2023-07-20T04:38:07;96598.88;;;16.23;100.00
45731;BME280;31440;48.584;13.460;2023-07-20T04:41:12;96597.22;;;16.10;100.00
45731;BME280;31440;48.584;13.460;2023-07-20T04:44:21;96603.63;;;15.80;100.00
45731;BME280;31440;48.584;13.460;2023-07-20T04:47:28;96594.69;;;15.95;100.00
45731;BME280;31440;48.584;13.460;2023-07-20T04:50:32;96590.28;;;16.08;100.00
45731;BME280;31440;48.584;13.460;2023-07-20T04:53:37;96597.81;;;16.38;100.00
45731;BME280;31440;48.584;13.460;2023-07-20T04:56:44;96568.63;;;15.92;100.00
45731;BME280;31440;48.584;13.460;2023-07-20T04:59:51;96610.56;;;16.06;100.00
45731;BME280;31440;48.584;13.460;2023-07-20T05:02:56;96607.69;;;15.84;100.00
45731;BME280;31440;48.584;13.460;2023-07-20T05:06:01;96602.34;;;15.86;100.00
45731;BME280;31440;48.584;13.460;2023-07-20T05:09:06;96607.19;;;16.04;100.00
45731;BME280;31440;48.584;13.460;2023-07-20T05:12:12;96605.09;;;16.10;100.00
45731;BME280;31440;48.584;13.460;2023-07-20T05:15:18;96574.00;;;16.78;100.00
45731;BME280;31440;48.584;13.460;2023-07-20T05:18:23;96608.75;;;16.58;100.00
45731;BME280;31440;48.584;13.460;2023-07-20T05:21:28;96595.81;;;16.91;100.00
45731;BME280;31440;48.584;13.460;2023-07-20T05:24:33;96612.38;;;17.17;100.00
45731;BME280;31440;48.584;13.460;2023-07-20T05:27:38;96613.16;;;16.57;100.00
45731;BME280;31440;48.584;13.460;2023-07-20T05:30:43;96599.03;;;17.31;100.00
45731;BME280;31440;48.584;13.460;2023-07-20T05:33:48;96605.72;;;16.51;100.00
45731;BME280;31440;48.584;13.460;2023-07-20T05:39:59;96599.91;;;16.59;100.00
45731;BME280;31440;48.584;13.460;2023-07-20T05:43:03;96597.06;;;17.70;100.00
45731;BME280;31440;48.584;13.460;2023-07-20T05:46:08;96605.94;;;17.45;100.00
45731;BME280;31440;48.584;13.460;2023-07-20T05:49:13;96613.50;;;17.50;100.00
45731;BME280;31440;48.584;13.460;2023-07-20T05:52:17;96605.28;;;18.00;100.00
45731;BME280;31440;48.584;13.460;2023-07-20T05:55:22;96609.75;;;17.17;100.00
45731;BME280;31440;48.584;13.460;2023-07-20T05:58:27;96612.47;;;17.16;100.00
45731;BME280;31440;48.584;13.460;2023-07-20T06:01:31;96614.38;;;17.14;100.00
45731;BME280;31440;48.584;13.460;2023-07-20T06:04:36;96621.69;;;16.61;100.00
45731;BME280;31440;48.584;13.460;2023-07-20T06:10:50;96614.53;;;16.25;100.00
45731;BME280;31440;48.584;13.460;2023-07-20T06:13:55;96619.25;;;16.45;100.00
45731;BME280;31440;48.584;13.460;2023-07-20T06:17:00;96619.13;;;16.85;100.00
45731;BME280;31440;48.584;13.460;2023-07-20T06:20:05;96624.28;;;16.73;100.00
45731;BME280;31440;48.584;13.460;2023-07-20T06:23:11;96632.84;;;17.37;100.00
45731;BME280;31440;48.584;13.460;2023-07-20T06:26:16;96630.59;;;17.07;100.00
45731;BME280;31440;48.584;13.460;2023-07-20T06:29:20;96631.72;;;17.16;100.00
45731;BME280;31440;48.584;13.460;2023-07-20T06:32:26;96623.69;;;16.70;100.00
45731;BME280;31440;48.584;13.460;2023-07-20T06:35:30;96635.84;;;16.71;100.00
45731;BME280;31440;48.584;13.460;2023-07-20T06:38:35;96625.53;;;17.17;100.00
45731;BME280;31440;48.584;13.460;2023-07-20T06:41:40;96631.41;;;16.84;100.00
45731;BME280;31440;48.584;13.460;2023-07-20T06:44:46;96630.78;;;16.81;100.00
45731;BME280;31440;48.584;13.460;2023-07-20T06:47:51;96629.31;;;17.13;100.00
45731;BME280;31440;48.584;13.460;2023-07-20T06:50:55;96633.88;;;17.35;100.00
45731;BME280;31440;48.584;13.460;2023-07-20T06:54:01;96639.09;;;17.48;100.00
45731;BME280;31440;48.584;13.460;2023-07-20T06:57:06;96638.69;;;17.17;100.00
45731;BME280;31440;48.584;13.460;2023-07-20T07:00:13;96641.50;;;17.51;100.00
45731;BME280;31440;48.584;13.460;2023-07-20T07:09:37;96641.84;;;17.46;100.00
45731;BME280;31440;48.584;13.460;2023-07-20T07:12:41;96639.56;;;17.29;100.00
45731;BME280;31440;48.584;13.460;2023-07-20T07:15:46;96642.38;;;17.97;100.00
45731;BME280;31440;48.584;13.460;2023-07-20T07:18:51;96637.06;;;17.75;100.00
45731;BME280;31440;48.584;13.460;2023-07-20T07:21:57;96633.47;;;17.41;100.00
45731;BME280;31440;48.584;13.460;2023-07-20T07:28:10;96643.84;;;17.42;100.00
45731;BME280;31440;48.584;13.460;2023-07-20T07:31:15;96651.88;;;17.41;100.00
45731;BME280;31440;48.584;13.460;2023-07-20T07:34:19;96655.94;;;17.45;100.00
45731;BME280;31440;48.584;13.460;2023-07-20T07:37:24;96647.78;;;17.96;100.00
45731;BME280;31440;48.584;13.460;2023-07-20T07:40:29;96658.78;;;18.36;100.00
45731;BME280;31440;48.584;13.460;2023-07-20T07:43:33;96651.94;;;18.33;99.48
45731;BME280;31440;48.584;13.460;2023-07-20T07:46:39;96657.34;;;17.97;96.00
45731;BME280;31440;48.584;13.460;2023-07-20T07:49:44;96654.28;;;18.14;96.73
45731;BME280;31440;48.584;13.460;2023-07-20T07:52:50;96648.97;;;18.94;95.22
45731;BME280;31440;48.584;13.460;2023-07-20T07:55:55;96615.50;;;18.94;84.47
45731;BME280;31440;48.584;13.460;2023-07-20T07:59:00;96652.84;;;19.01;84.22
45731;BME280;31440;48.584;13.460;2023-07-20T08:02:05;96651.97;;;19.11;77.96
45731;BME280;31440;48.584;13.460;2023-07-20T08:05:10;96658.66;;;18.37;81.36
45731;BME280;31440;48.584;13.460;2023-07-20T08:08:15;96658.09;;;18.78;83.01
45731;BME280;31440;48.584;13.460;2023-07-20T08:11:19;96657.84;;;18.81;81.31
45731;BME280;31440;48.584;13.460;2023-07-20T08:14:24;96666.56;;;19.27;76.56
45731;BME280;31440;48.584;13.460;2023-07-20T08:20:35;96662.38;;;19.35;69.22
45731;BME280;31440;48.584;13.460;2023-07-20T08:23:40;96681.94;;;19.22;69.63
45731;BME280;31440;48.584;13.460;2023-07-20T08:26:44;96680.03;;;18.90;68.87
45731;BME280;31440;48.584;13.460;2023-07-20T08:29:49;96673.66;;;18.93;69.44
45731;BME280;31440;48.584;13.460;2023-07-20T08:32:54;96678.09;;;18.92;70.55
45731;BME280;31440;48.584;13.460;2023-07-20T08:35:58;96673.31;;;19.63;69.93
45731;BME280;31440;48.584;13.460;2023-07-20T08:39:06;96675.59;;;19.67;66.95
45731;BME280;31440;48.584;13.460;2023-07-20T08:42:14;96667.97;;;19.85;64.02
45731;BME280;31440;48.584;13.460;2023-07-20T08:45:20;96659.84;;;19.98;64.49
45731;BME280;31440;48.584;13.460;2023-07-20T08:48:27;96661.41;;;19.68;64.46
45731;BME280;31440;48.584;13.460;2023-07-20T08:51:35;96632.06;;;20.45;59.37
45731;BME280;31440;48.584;13.460;2023-07-20T08:54:40;96662.25;;;20.63;58.25
45731;BME280;31440;48.584;13.460;2023-07-20T08:57:47;96657.44;;;20.27;59.99
45731;BME280;31440;48.584;13.460;2023-07-20T09:04:00;96656.44;;;21.69;57.98
45731;BME280;31440;48.584;13.460;2023-07-20T09:07:05;96656.09;;;20.93;56.04
45731;BME280;31440;48.584;13.460;2023-07-20T09:10:10;96651.84;;;21.21;57.10
45731;BME280;31440;48.584;13.460;2023-07-20T09:13:16;96649.31;;;21.69;53.81
45731;BME280;31440;48.584;13.460;2023-07-20T09:16:21;96651.66;;;21.43;55.42
45731;BME280;31440;48.584;13.460;2023-07-20T09:19:26;96655.47;;;21.20;51.71
45731;BME280;31440;48.584;13.460;2023-07-20T09:22:31;96646.66;;;21.60;54.30
45731;BME280;31440;48.584;13.460;2023-07-20T09:25:36;96653.59;;;22.38;50.49
45731;BME280;31440;48.584;13.460;2023-07-20T09:28:53;96651.78;;;20.92;53.98
45731;BME280;31440;48.584;13.460;2023-07-20T09:35:06;96646.47;;;20.82;58.89
45731;BME280;31440;48.584;13.460;2023-07-20T09:38:14;96652.78;;;21.50;55.50
45731;BME280;31440;48.584;13.460;2023-07-20T09:41:22;96642.16;;;21.41;56.26
45731;BME280;31440;48.584;13.460;2023-07-20T09:44:30;96654.00;;;21.27;57.37
45731;BME280;31440;48.584;13.460;2023-07-20T09:47:38;96647.88;;;20.56;56.13
45731;BME280;31440;48.584;13.460;2023-07-20T09:50:49;96647.25;;;20.73;56.74
45731;BME280;31440;48.584;13.460;2023-07-20T09:53:55;96652.94;;;21.09;58.58
45731;BME280;31440;48.584;13.460;2023-07-20T10:00:07;96655.63;;;20.06;59.32
45731;BME280;31440;48.584;13.460;2023-07-20T10:03:28;96661.72;;;21.09;58.15
45731;BME280;31440;48.584;13.460;2023-07-20T10:06:39;96658.94;;;21.61;59.76
45731;BME280;31440;48.584;13.460;2023-07-20T10:09:47;96657.66;;;21.93;55.71
45731;BME280;31440;48.584;13.460;2023-07-20T10:12:57;96634.66;;;20.56;56.78
45731;BME280;31440;48.584;13.460;2023-07-20T10:19:18;96656.88;;;20.84;55.66
45731;BME280;31440;48.584;13.460;2023-07-20T10:22:30;96648.22;;;21.22;56.63
45731;BME280;31440;48.584;13.460;2023-07-20T10:25:40;96653.50;;;21.72;53.54
45731;BME280;31440;48.584;13.460;2023-07-20T10:28:47;96644.88;;;21.20;52.50
45731;BME280;31440;48.584;13.460;2023-07-20T10:31:51;96650.91;;;20.82;54.91
45731;BME280;31440;48.584;13.460;2023-07-20T10:34:59;96637.03;;;19.97;56.50
45731;BME280;31440;48.584;13.460;2023-07-20T10:38:04;96639.44;;;20.51;58.32
45731;BME280;31440;48.584;13.460;2023-07-20T10:44:19;96636.06;;;20.39;55.67
45731;BME280;31440;48.584;13.460;2023-07-20T10:47:24;96642.00;;;20.52;56.57
45731;BME280;31440;48.584;13.460;2023-07-20T10:50:29;96638.69;;;20.91;57.72
45731;BME280;31440;48.584;13.460;2023-07-20T10:53:33;96640.19;;;21.23;53.72
45731;BME280;31440;48.584;13.460;2023-07-20T10:56:42;96624.22;;;21.54;53.20
45731;BME280;31440;48.584;13.460;2023-07-20T10:59:47;96632.84;;;21.56;51.33
45731;BME280;31440;48.584;13.460;2023-07-20T11:02:58;96636.22;;;22.06;51.93
45731;BME280;31440;48.584;13.460;2023-07-20T11:09:34;96622.66;;;21.42;52.31
45731;BME280;31440;48.584;13.460;2023-07-20T11:12:39;96626.44;;;21.58;48.87
45731;BME280;31440;48.584;13.460;2023-07-20T11:18:52;96618.63;;;21.96;49.17
45731;BME280;31440;48.584;13.460;2023-07-20T11:21:59;96613.72;;;21.91;50.68
45731;BME280;31440;48.584;13.460;2023-07-20T11:25:10;96620.16;;;21.79;52.40
45731;BME280;31440;48.584;13.460;2023-07-20T11:28:14;96618.63;;;22.71;48.54
45731;BME280;31440;48.584;13.460;2023-07-20T11:31:19;96622.84;;;22.08;49.62
45731;BME280;31440;48.584;13.460;2023-07-20T11:34:24;96604.22;;;22.74;47.90
45731;BME280;31440;48.584;13.460;2023-07-20T11:40:35;96596.63;;;24.05;41.71
45731;BME280;31440;48.584;13.460;2023-07-20T11:43:40;96604.06;;;22.75;42.25
45731;BME280;31440;48.584;13.460;2023-07-20T11:46:45;96598.91;;;24.77;41.96
45731;BME280;31440;48.584;13.460;2023-07-20T11:49:50;96595.66;;;24.91;41.11
45731;BME280;31440;48.584;13.460;2023-07-20T11:52:59;96598.69;;;25.63;40.00
45731;BME280;31440;48.584;13.460;2023-07-20T11:59:10;96594.06;;;25.81;40.85
45731;BME280;31440;48.584;13.460;2023-07-20T12:02:14;96582.00;;;25.28;39.36
45731;BME280;31440;48.584;13.460;2023-07-20T12:05:22;96578.66;;;24.84;41.31
45731;BME280;31440;48.584;13.460;2023-07-20T12:08:27;96581.19;;;23.19;42.66
45731;BME280;31440;48.584;13.460;2023-07-20T12:11:37;96577.59;;;24.77;39.56
45731;BME280;31440;48.584;13.460;2023-07-20T12:14:42;96572.94;;;23.76;42.54
45731;BME280;31440;48.584;13.460;2023-07-20T12:17:55;96572.94;;;24.71;41.67
45731;BME280;31440;48.584;13.460;2023-07-20T12:21:00;96570.19;;;24.89;40.91
45731;BME280;31440;48.584;13.460;2023-07-20T12:24:05;96553.53;;;24.27;40.26
45731;BME280;31440;48.584;13.460;2023-07-20T12:30:17;96557.94;;;26.58;38.18
45731;BME280;31440;48.584;13.460;2023-07-20T12:33:22;96550.03;;;26.10;36.30
45731;BME280;31440;48.584;13.460;2023-07-20T12:36:27;96542.78;;;26.98;36.02
45731;BME280;31440;48.584;13.460;2023-07-20T12:39:31;96534.00;;;27.12;38.08
45731;BME280;31440;48.584;13.460;2023-07-20T12:42:37;96551.16;;;27.26;36.36
45731;BME280;31440;48.584;13.460;2023-07-20T12:45:42;96539.25;;;27.59;34.17
45731;BME280;31440;48.584;13.460;2023-07-20T12:48:47;96538.75;;;27.02;33.68
45731;BME280;31440;48.584;13.460;2023-07-20T12:51:53;96533.97;;;26.34;34.41
45731;BME280;31440;48.584;13.460;2023-07-20T12:54:59;96514.69;;;25.34;35.35
45731;BME280;31440;48.584;13.460;2023-07-20T12:58:06;96542.34;;;25.25;35.92
45731;BME280;31440;48.584;13.460;2023-07-20T13:01:11;96539.84;;;25.24;36.10
45731;BME280;31440;48.584;13.460;2023-07-20T13:04:16;96532.38;;;24.85;36.46
45731;BME280;31440;48.584;13.460;2023-07-20T13:07:30;96536.69;;;25.69;36.19
45731;BME280;31440;48.584;13.460;2023-07-20T13:10:39;96544.22;;;26.69;33.93
45731;BME280;31440;48.584;13.460;2023-07-20T13:13:43;96539.97;;;26.52;33.39
45731;BME280;31440;48.584;13.460;2023-07-20T13:16:49;96531.28;;;25.04;35.63
45731;BME280;31440;48.584;13.460;2023-07-20T13:19:54;96533.84;;;26.19;35.57
45731;BME280;31440;48.584;13.460;2023-07-20T13:22:59;96520.38;;;24.81;35.73
45731;BME280;31440;48.584;13.460;2023-07-20T13:26:05;96504.91;;;23.65;37.99
45731;BME280;31440;48.584;13.460;2023-07-20T13:29:10;96530.78;;;25.17;36.13
45731;BME280;31440;48.584;13.460;2023-07-20T13:32:15;96520.31;;;26.29;33.73
45731;BME280;31440;48.584;13.460;2023-07-20T13:35:20;96520.97;;;26.39;34.60
45731;BME280;31440;48.584;13.460;2023-07-20T13:38:25;96511.63;;;25.13;34.51
45731;BME280;31440;48.584;13.460;2023-07-20T13:41:29;96506.53;;;24.36;36.77
45731;BME280;31440;48.584;13.460;2023-07-20T13:44:37;96499.41;;;26.49;33.49
45731;BME280;31440;48.584;13.460;2023-07-20T13:47:42;96506.94;;;26.84;33.01
45731;BME280;31440;48.584;13.460;2023-07-20T13:50:51;96490.47;;;27.95;30.93
45731;BME280;31440;48.584;13.460;2023-07-20T13:54:00;96494.84;;;28.25;32.00
45731;BME280;31440;48.584;13.460;2023-07-20T13:57:25;96515.91;;;25.81;35.10
45731;BME280;31440;48.584;13.460;2023-07-20T14:00:31;96505.75;;;24.85;35.61
45731;BME280;31440;48.584;13.460;2023-07-20T14:03:38;96503.97;;;24.94;36.32
45731;BME280;31440;48.584;13.460;2023-07-20T14:09:52;96498.63;;;24.18;34.93
45731;BME280;31440;48.584;13.460;2023-07-20T14:12:59;96500.22;;;24.37;35.86
45731;BME280;31440;48.584;13.460;2023-07-20T14:16:04;96493.06;;;23.59;35.37
45731;BME280;31440;48.584;13.460;2023-07-20T14:19:11;96498.72;;;25.43;34.23
45731;BME280;31440;48.584;13.460;2023-07-20T14:22:15;96488.53;;;25.71;32.71
45731;BME280;31440;48.584;13.460;2023-07-20T14:28:25;96477.00;;;26.58;33.84
45731;BME280;31440;48.584;13.460;2023-07-20T14:31:29;96483.63;;;27.55;33.25
45731;BME280;31440;48.584;13.460;2023-07-20T14:34:36;96476.44;;;27.55;31.47
45731;BME280;31440;48.584;13.460;2023-07-20T14:37:43;96479.91;;;26.79;31.88
45731;BME280;31440;48.584;13.460;2023-07-20T14:40:51;96476.44;;;26.23;31.99
45731;BME280;31440;48.584;13.460;2023-07-20T14:43:57;96466.34;;;27.43;29.30
45731;BME280;31440;48.584;13.460;2023-07-20T14:47:02;96453.19;;;28.08;30.60
45731;BME280;31440;48.584;13.460;2023-07-20T14:50:19;96470.31;;;27.01;29.58
45731;BME280;31440;48.584;13.460;2023-07-20T14:53:24;96463.81;;;26.64;31.17
45731;BME280;31440;48.584;13.460;2023-07-20T14:56:48;96446.34;;;28.05;28.73
45731;BME280;31440;48.584;13.460;2023-07-20T14:59:54;96457.78;;;27.85;29.55
45731;BME280;31440;48.584;13.460;2023-07-20T15:02:58;96458.69;;;26.86;30.50
45731;BME280;31440;48.584;13.460;2023-07-20T15:06:03;96461.88;;;25.54;32.17
45731;BME280;31440;48.584;13.460;2023-07-20T15:12:14;96451.94;;;26.28;30.92
45731;BME280;31440;48.584;13.460;2023-07-20T15:15:19;96440.31;;;27.36;30.40
45731;BME280;31440;48.584;13.460;2023-07-20T15:18:23;96437.94;;;27.19;31.21
45731;BME280;31440;48.584;13.460;2023-07-20T15:21:45;96433.13;;;26.60;30.68
45731;BME280;31440;48.584;13.460;2023-07-20T15:24:51;96437.13;;;26.56;32.56
45731;BME280;31440;48.584;13.460;2023-07-20T15:27:56;96441.06;;;25.66;32.58
45731;BME280;31440;48.584;13.460;2023-07-20T15:31:04;96431.41;;;27.21;31.02
45731;BME280;31440;48.584;13.460;2023-07-20T15:37:18;96432.44;;;26.58;31.96
45731;BME280;31440;48.584;13.460;2023-07-20T15:40:22;96434.59;;;25.44;32.51
45731;BME280;31440;48.584;13.460;2023-07-20T15:43:27;96432.84;;;26.00;32.26
45731;BME280;31440;48.584;13.460;2023-07-20T15:49:38;96420.38;;;27.01;31.92
45731;BME280;31440;48.584;13.460;2023-07-20T15:52:42;96423.94;;;28.21;31.04
45731;BME280;31440;48.584;13.460;2023-07-20T15:55:53;96417.91;;;27.37;31.02
45731;BME280;31440;48.584;13.460;2023-07-20T15:58:59;96421.13;;;26.87;30.52
45731;BME280;31440;48.584;13.460;2023-07-20T16:02:04;96417.78;;;26.85;30.70
45731;BME280;31440;48.584;13.460;2023-07-20T16:05:09;96411.53;;;26.70;30.88
45731;BME280;31440;48.584;13.460;2023-07-20T16:08:17;96417.16;;;26.52;30.00
45731;BME280;31440;48.584;13.460;2023-07-20T16:11:21;96421.13;;;25.29;31.22
45731;BME280;31440;48.584;13.460;2023-07-20T16:14:32;96408.59;;;25.06;30.64
45731;BME280;31440;48.584;13.460;2023-07-20T16:17:57;96425.16;;;26.52;31.01
45731;BME280;31440;48.584;13.460;2023-07-20T16:21:02;96417.81;;;26.07;30.19
45731;BME280;31440;48.584;13.460;2023-07-20T16:24:06;96419.53;;;26.00;31.36
45731;BME280;31440;48.584;13.460;2023-07-20T16:27:11;96416.41;;;25.80;30.77
45731;BME280;31440;48.584;13.460;2023-07-20T16:30:16;96422.38;;;25.74;30.75
45731;BME280;31440;48.584;13.460;2023-07-20T16:33:20;96417.31;;;24.15;32.86
45731;BME280;31440;48.584;13.460;2023-07-20T16:36:25;96415.22;;;25.02;31.85
45731;BME280;31440;48.584;13.460;2023-07-20T16:39:30;96404.06;;;24.82;31.50
45731;BME280;31440;48.584;13.460;2023-07-20T16:42:35;96409.25;;;25.08;32.27
45731;BME280;31440;48.584;13.460;2023-07-20T16:45:42;96398.97;;;25.29;31.50
45731;BME280;31440;48.584;13.460;2023-07-20T16:48:47;96410.25;;;24.90;31.45
45731;BME280;31440;48.584;13.460;2023-07-20T16:51:55;96406.78;;;24.40;31.27
45731;BME280;31440;48.584;13.460;2023-07-20T16:55:00;96405.47;;;25.26;30.74
45731;BME280;31440;48.584;13.460;2023-07-20T16:58:05;96404.75;;;24.34;31.40
45731;BME280;31440;48.584;13.460;2023-07-20T17:01:09;96406.50;;;24.59;31.71
45731;BME280;31440;48.584;13.460;2023-07-20T17:04:14;96414.50;;;24.17;32.54
45731;BME280;31440;48.584;13.460;2023-07-20T17:07:19;96404.88;;;24.58;32.33
45731;BME280;31440;48.584;13.460;2023-07-20T17:10:24;96406.34;;;24.60;32.22
45731;BME280;31440;48.584;13.460;2023-07-20T17:16:37;96402.38;;;24.81;31.31
45731;BME280;31440;48.584;13.460;2023-07-20T17:19:42;96401.06;;;24.26;31.84
45731;BME280;31440;48.584;13.460;2023-07-20T17:22:46;96401.31;;;24.49;32.11
45731;BME280;31440;48.584;13.460;2023-07-20T17:25:51;96400.47;;;23.73;32.93